Time;durP1;ratioP1;P1;durP2;ratioP2;P2;SDS_P1;SDS_P2;PMS_P1;PMS_P2;Temp;Humidity;BMP_temperature;BMP_pressure;BME280_temperature;BME280_humidity;BME280_pressure;Samples;Min_cycle;Max_cycle;Signal;HPM_P1;HPM_P2
2021/04/01 00:00:44;;;;;;;;;;;;;;;10.53;59.28;101840.63;5076585;28;1115;-72
2021/04/01 00:03:10;;;;;;;;;;;;;;;10.56;59.14;101833.66;5077150;28;865;-72
2021/04/01 00:05:35;;;;;;;;;;;;;;;10.63;59.24;101839.53;5076709;28;1851;-72
2021/04/01 00:08:00;;;;;;;;;;;;;;;10.69;58.91;101828.03;5075984;28;1221;-73
2021/04/01 00:10:35;;;;;;;;;;;;;;;10.73;59.19;101830.97;5076244;28;2160;-72
2021/04/01 00:13:02;;;;;;;;;;;;;;;10.69;58.90;101822.50;5076777;28;831;-72
2021/04/01 00:15:28;;;;;;;;;;;;;;;10.69;58.18;101819.75;5076286;28;1812;-72
2021/04/01 00:17:53;;;;;;;;;;;;;;;10.71;57.68;101822.16;5075281;28;1962;-72
2021/04/01 00:20:18;;;;;;;;;;;;;;;10.70;58.15;101823.31;5075615;28;1892;-72
2021/04/01 00:22:44;;;;;;;;;;;;;;;10.66;58.27;101828.66;5076327;28;863;-72
2021/04/01 00:25:13;;;;;;;;;;;;;;;10.66;58.52;101820.38;5075775;28;1886;-72
2021/04/01 00:27:39;;;;;;;;;;;;;;;10.68;58.23;101815.34;5075881;28;1345;-72
2021/04/01 00:30:06;;;;;;;;;;;;;;;10.73;58.57;101826.25;5076007;28;915;-72
2021/04/01 00:32:31;;;;;;;;;;;;;;;10.77;58.17;101820.09;5075455;28;1948;-73
2021/04/01 00:34:56;;;;;;;;;;;;;;;10.83;58.36;101822.38;5076069;28;987;-72
2021/04/01 00:37:22;;;;;;;;;;;;;;;10.82;58.58;101820.75;5075361;28;1897;-73
2021/04/01 00:39:47;;;;;;;;;;;;;;;10.81;58.50;101827.38;5075750;28;2042;-72
2021/04/01 00:42:14;;;;;;;;;;;;;;;10.80;59.25;101822.22;5075629;28;880;-72
2021/04/01 00:44:40;;;;;;;;;;;;;;;10.80;58.70;101817.50;5075775;28;852;-72
2021/04/01 00:47:09;;;;;;;;;;;;;;;10.85;58.46;101816.53;5075147;28;1189;-73
2021/04/01 00:49:38;;;;;;;;;;;;;;;10.87;58.67;101822.53;5075445;28;2109;-72
2021/04/01 00:52:06;;;;;;;;;;;;;;;10.86;58.57;101815.38;5075261;28;1142;-72
2021/04/01 00:54:32;;;;;;;;;;;;;;;10.87;58.40;101823.34;5075174;28;1995;-72
2021/04/01 00:56:58;;;;;;;;;;;;;;;10.85;58.58;101831.16;5075491;28;1264;-72
2021/04/01 00:59:24;;;;;;;;;;;;;;;10.83;59.13;101830.66;5074809;28;1906;-72
2021/04/01 01:01:51;;;;;;;;;;;;;;;10.81;59.70;101819.09;5075494;28;991;-72
2021/04/01 01:04:18;;;;;;;;;;;;;;;10.79;59.81;101821.38;5075740;28;844;-72
2021/04/01 01:06:44;;;;;;;;;;;;;;;10.78;59.01;101818.94;5075648;28;1177;-72
2021/04/01 01:09:11;;;;;;;;;;;;;;;10.76;59.40;101818.44;5075290;28;2042;-73
2021/04/01 01:11:37;;;;;;;;;;;;;;;10.75;59.36;101830.66;5076159;28;872;-75
2021/04/01 01:14:06;;;;;;;;;;;;;;;10.73;59.54;101823.47;5075542;28;2015;-74
2021/04/01 01:16:33;;;;;;;;;;;;;;;10.73;58.94;101823.47;5074197;28;1189;-75
2021/04/01 01:18:59;;;;;;;;;;;;;;;10.75;58.59;101827.88;5074819;28;2124;-74
2021/04/01 01:21:25;;;;;;;;;;;;;;;10.72;59.08;101823.81;5075503;28;805;-75
2021/04/01 01:23:51;;;;;;;;;;;;;;;10.72;58.79;101840.38;5075046;28;2036;-74
2021/04/01 01:26:18;;;;;;;;;;;;;;;10.70;58.69;101829.63;5075008;28;1333;-74
2021/04/01 01:28:43;;;;;;;;;;;;;;;10.72;57.53;101827.38;5075043;28;830;-75
2021/04/01 01:31:09;;;;;;;;;;;;;;;10.77;57.00;101822.84;5073737;28;2129;-75
2021/04/01 01:33:42;;;;;;;;;;;;;;;10.77;57.16;101829.19;5075154;28;843;-74
2021/04/01 01:36:09;;;;;;;;;;;;;;;10.76;56.50;101819.25;5075192;28;1188;-75
2021/04/01 01:38:35;;;;;;;;;;;;;;;10.73;56.77;101820.72;5074651;28;1948;-74
2021/04/01 01:41:03;;;;;;;;;;;;;;;10.70;56.66;101826.88;5074835;28;2058;-74
2021/04/01 01:43:28;;;;;;;;;;;;;;;10.66;57.55;101830.63;5074653;28;1833;-74
2021/04/01 01:45:54;;;;;;;;;;;;;;;10.61;58.32;101831.56;5075213;28;1267;-75
2021/04/01 01:48:19;;;;;;;;;;;;;;;10.57;57.85;101825.03;5074656;28;829;-74
2021/04/01 01:50:45;;;;;;;;;;;;;;;10.56;58.41;101828.97;5074826;28;896;-74
2021/04/01 01:53:11;;;;;;;;;;;;;;;10.53;58.53;101835.13;5056503;28;2131;-74
2021/04/01 01:55:37;;;;;;;;;;;;;;;10.53;57.99;101835.13;5074578;28;1863;-75
2021/04/01 01:58:03;;;;;;;;;;;;;;;10.53;57.51;101830.38;5074198;28;1890;-74
2021/04/01 02:00:40;;;;;;;;;;;;;;;10.53;57.45;101835.13;5074646;28;987;-74
2021/04/01 02:03:08;;;;;;;;;;;;;;;10.49;57.28;101834.94;5075035;28;839;-74
2021/04/01 02:05:35;;;;;;;;;;;;;;;10.49;57.01;101820.31;5074544;28;2031;-74
2021/04/01 02:08:00;;;;;;;;;;;;;;;10.48;56.64;101808.44;5074228;28;1271;-74
2021/04/01 02:10:32;;;;;;;;;;;;;;;10.48;56.30;101818.69;5073267;28;1867;-74
2021/04/01 02:12:58;;;;;;;;;;;;;;;10.45;56.59;101814.63;5075032;28;845;-75
2021/04/01 02:15:27;;;;;;;;;;;;;;;10.40;56.56;101811.19;5074802;28;831;-74
2021/04/01 02:18:11;;;;;;;;;;;;;;;10.32;57.10;101819.09;5073911;28;1890;-74
2021/04/01 02:20:45;;;;;;;;;;;;;;;10.24;57.25;101825.38;5074992;28;768;-74
2021/04/01 02:23:12;;;;;;;;;;;;;;;10.19;57.26;101808.97;5074594;28;2025;-74
2021/04/01 02:25:39;;;;;;;;;;;;;;;10.18;56.69;101807.34;5074263;28;1985;-74
2021/04/01 02:28:05;;;;;;;;;;;;;;;10.21;56.19;101803.09;5074312;28;1319;-74
2021/04/01 02:30:31;;;;;;;;;;;;;;;10.21;57.19;101806.69;5074817;28;851;-74
2021/04/01 02:32:56;;;;;;;;;;;;;;;10.25;55.97;101810.44;5074672;28;966;-74
2021/04/01 02:35:21;;;;;;;;;;;;;;;10.33;56.25;101806.13;5074624;28;964;-74
2021/04/01 02:37:47;;;;;;;;;;;;;;;10.37;55.72;101800.78;5074224;28;2070;-74
2021/04/01 02:40:13;;;;;;;;;;;;;;;10.36;56.47;101802.72;5074271;28;2143;-74
2021/04/01 02:42:40;;;;;;;;;;;;;;;10.30;56.27;101793.75;5075205;28;1045;-74
2021/04/01 02:45:06;;;;;;;;;;;;;;;10.29;56.70;101794.88;5078298;28;843;-75
2021/04/01 02:47:32;;;;;;;;;;;;;;;10.24;56.99;101799.72;5077777;28;1272;-74
2021/04/01 02:49:57;;;;;;;;;;;;;;;10.16;57.21;101802.13;5078112;28;975;-74
2021/04/01 02:52:22;;;;;;;;;;;;;;;10.07;57.50;101800.44;5078146;28;2046;-74
2021/04/01 02:54:47;;;;;;;;;;;;;;;10.00;58.17;101802.84;5077736;28;2125;-74
2021/04/01 02:57:15;;;;;;;;;;;;;;;9.94;58.44;101805.75;5077384;28;1180;-74
2021/04/01 02:59:40;;;;;;;;;;;;;;;9.84;58.00;101810.72;5077772;28;805;-74
2021/04/01 03:02:05;;;;;;;;;;;;;;;9.74;58.36;101809.84;5077640;28;1981;-75
2021/04/01 03:04:32;;;;;;;;;;;;;;;9.67;58.94;101812.25;5077860;28;850;-74
2021/04/01 03:06:57;;;;;;;;;;;;;;;9.71;58.69;101807.72;5077810;28;1181;-74
2021/04/01 03:09:23;;;;;;;;;;;;;;;9.72;58.17;101790.03;5075305;28;2109;-75
2021/04/01 03:11:48;;;;;;;;;;;;;;;9.76;58.35;101791.03;5078340;28;1027;-74
2021/04/01 03:14:13;;;;;;;;;;;;;;;9.80;57.67;101780.19;5076651;28;1651;-74
2021/04/01 03:16:38;;;;;;;;;;;;;;;9.84;57.78;101783.13;5077858;28;1228;-74
2021/04/01 03:19:04;;;;;;;;;;;;;;;9.90;56.96;101781.88;5077669;28;1964;-74
2021/04/01 03:21:29;;;;;;;;;;;;;;;9.92;56.62;101774.09;5077847;28;979;-74
2021/04/01 03:23:54;;;;;;;;;;;;;;;9.92;56.65;101774.09;5077252;28;2090;-74
2021/04/01 03:26:20;;;;;;;;;;;;;;;9.90;57.02;101779.94;5077323;28;1188;-74
2021/04/01 03:28:45;;;;;;;;;;;;;;;9.92;57.23;101785.13;5077256;28;880;-74
2021/04/01 03:31:10;;;;;;;;;;;;;;;9.89;57.96;101783.00;5078209;28;840;-74
2021/04/01 03:33:36;;;;;;;;;;;;;;;9.88;57.56;101782.19;5077432;28;1035;-74
2021/04/01 03:36:01;;;;;;;;;;;;;;;9.90;57.47;101774.41;5077228;28;1193;-75
2021/04/01 03:38:27;;;;;;;;;;;;;;;9.95;56.95;101784.50;5076681;28;2017;-74
2021/04/01 03:40:54;;;;;;;;;;;;;;;9.97;57.43;101782.22;5076745;28;2221;-75
2021/04/01 03:43:25;;;;;;;;;;;;;;;9.98;57.20;101783.84;5077087;28;820;-74
2021/04/01 03:45:50;;;;;;;;;;;;;;;9.97;57.59;101785.81;5077351;28;1193;-75
2021/04/01 03:48:17;;;;;;;;;;;;;;;9.94;57.52;101780.91;5076864;28;975;-75
2021/04/01 03:50:43;;;;;;;;;;;;;;;9.93;58.28;101795.00;5075711;28;2222;-74
2021/04/01 03:53:08;;;;;;;;;;;;;;;9.91;58.87;101795.31;5076832;28;1034;-74
2021/04/01 03:55:41;;;;;;;;;;;;;;;9.90;58.60;101795.66;5075804;28;1773;-74
2021/04/01 03:58:35;;;;;;;;;;;;;;;9.89;58.20;101789.31;5076287;28;1886;-74
2021/04/01 04:06:33;;;;;;;;;;;;;;;9.84;57.02;101788.66;5076242;28;2110;-73
2021/04/01 04:11:40;;;;;;;;;;;;;;;9.81;56.90;101786.50;5076773;28;861;-74
2021/04/01 04:14:13;;;;;;;;;;;;;;;9.81;57.18;101792.03;5076959;28;829;-74
2021/04/01 04:16:39;;;;;;;;;;;;;;;9.83;57.20;101798.88;5076502;28;1323;-74
2021/04/01 04:19:05;;;;;;;;;;;;;;;9.86;57.13;101798.25;5076214;28;1894;-74
2021/04/01 04:21:30;;;;;;;;;;;;;;;9.86;57.68;101823.06;5076298;28;2075;-74
2021/04/01 04:23:56;;;;;;;;;;;;;;;9.83;57.76;101811.84;5076458;28;2072;-74
2021/04/01 04:26:23;;;;;;;;;;;;;;;9.81;57.78;101825.13;5076553;28;1197;-74
2021/04/01 04:28:48;;;;;;;;;;;;;;;9.80;57.28;101813.28;5075946;28;838;-74
2021/04/01 04:31:14;;;;;;;;;;;;;;;9.78;57.25;101810.84;5076577;28;903;-74
2021/04/01 04:33:39;;;;;;;;;;;;;;;9.79;57.01;101818.00;5076389;28;818;-74
2021/04/01 04:36:05;;;;;;;;;;;;;;;9.77;56.74;101803.69;5075712;28;1926;-74
2021/04/01 04:38:30;;;;;;;;;;;;;;;9.79;56.64;101817.16;5075784;28;2121;-74
2021/04/01 04:40:57;;;;;;;;;;;;;;;9.77;56.92;101809.19;5076299;28;2036;-74
2021/04/01 04:43:24;;;;;;;;;;;;;;;9.79;55.65;101800.63;5076101;28;879;-74
2021/04/01 04:45:50;;;;;;;;;;;;;;;9.75;56.58;101810.66;5076145;28;904;-74
2021/04/01 04:48:15;;;;;;;;;;;;;;;9.72;56.72;101792.78;5075711;28;860;-74
2021/04/01 04:50:40;;;;;;;;;;;;;;;9.69;56.77;101790.69;5075815;28;831;-74
2021/04/01 04:53:06;;;;;;;;;;;;;;;9.67;57.17;101814.16;5074321;28;2062;-74
2021/04/01 04:55:32;;;;;;;;;;;;;;;9.64;57.01;101804.59;5075526;28;1873;-74
2021/04/01 04:58:06;;;;;;;;;;;;;;;9.62;57.17;101819.81;5075074;28;1894;-74
2021/04/01 05:05:47;;;;;;;;;;;;;;;9.29;58.62;101831.91;5075330;28;836;-74
2021/04/01 05:08:12;;;;;;;;;;;;;;;9.17;59.33;101831.59;5074769;28;2082;-74
2021/04/01 05:10:37;;;;;;;;;;;;;;;9.02;59.52;101832.75;5074999;28;1971;-74
2021/04/01 05:13:10;;;;;;;;;;;;;;;8.92;60.32;101839.31;5075525;28;772;-74
2021/04/01 05:15:41;;;;;;;;;;;;;;;8.81;60.51;101835.97;5075787;28;895;-74
2021/04/01 05:18:15;;;;;;;;;;;;;;;8.72;61.49;101831.47;5073603;28;1990;-74
2021/04/01 05:20:47;;;;;;;;;;;;;;;8.68;61.33;101838.72;5075756;28;911;-74
2021/04/01 05:23:32;;;;;;;;;;;;;;;8.71;62.51;101846.38;5075754;28;915;-74
2021/04/01 05:28:43;;;;;;;;;;;;;;;8.85;62.77;101858.19;5074652;28;883;-74
2021/04/01 05:31:11;;;;;;;;;;;;;;;8.91;62.38;101873.50;5075671;28;984;-74
2021/04/01 05:33:38;;;;;;;;;;;;;;;8.94;62.50;101878.38;5075130;28;868;-74
2021/04/01 05:36:08;;;;;;;;;;;;;;;8.97;62.63;101883.28;5074827;28;1264;-75
2021/04/01 05:38:34;;;;;;;;;;;;;;;8.97;63.10;101883.28;5074191;28;2031;-74
2021/04/01 05:41:00;;;;;;;;;;;;;;;8.99;63.13;101870.00;5074923;28;1697;-74
2021/04/01 05:43:28;;;;;;;;;;;;;;;9.03;62.99;101882.06;5075310;28;820;-74
2021/04/01 05:46:02;;;;;;;;;;;;;;;9.06;62.69;101877.84;5074884;28;1173;-74
2021/04/01 05:48:39;;;;;;;;;;;;;;;9.11;63.29;101880.50;5074712;28;852;-74
2021/04/01 05:54:28;;;;;;;;;;;;;;;9.29;62.75;101900.78;5075358;28;851;-74
2021/04/01 05:56:59;;;;;;;;;;;;;;;9.38;62.26;101900.88;5074622;28;1271;-74
2021/04/01 06:07:38;;;;;;;;;;;;;;;9.40;63.56;101934.47;5074075;28;1208;-74
2021/04/01 06:09:56;;;;;;;;;;;;;;;9.32;63.56;101937.94;5074269;28;2081;-74
2021/04/01 06:12:22;;;;;;;;;;;;;;;9.32;64.33;101949.78;5074542;28;970;-74
2021/04/01 06:15:02;;;;;;;;;;;;;;;9.25;64.76;101965.09;5073124;28;1206;-74
2021/04/01 06:17:31;;;;;;;;;;;;;;;9.17;66.08;101964.69;5075181;28;1941;-74
2021/04/01 06:20:02;;;;;;;;;;;;;;;9.18;66.56;101965.50;5078740;28;1906;-75
2021/04/01 06:22:28;;;;;;;;;;;;;;;9.01;67.58;101977.97;5079287;28;982;-75
2021/04/01 06:24:55;;;;;;;;;;;;;;;8.98;67.91;101973.06;5078405;28;2087;-74
2021/04/01 06:27:41;;;;;;;;;;;;;;;8.94;68.18;101976.72;5078540;28;1275;-74
2021/04/01 06:30:34;;;;;;;;;;;;;;;8.85;69.03;101982.94;5077532;28;1030;-74
2021/04/01 06:33:04;;;;;;;;;;;;;;;8.81;69.76;101978.34;5078909;28;907;-74
2021/04/01 06:35:35;;;;;;;;;;;;;;;8.84;69.62;101986.81;5078638;28;2049;-74
2021/04/01 06:40:42;;;;;;;;;;;;;;;10.02;65.38;101983.53;5078468;28;1847;-74
2021/04/01 06:43:38;;;;;;;;;;;;;;;9.96;65.48;101982.81;5077650;28;2105;-74
2021/04/01 06:46:07;;;;;;;;;;;;;;;9.92;65.58;101990.09;5078803;28;1224;-74
2021/04/01 06:51:25;;;;;;;;;;;;;;;10.88;61.98;101976.97;5078053;28;793;-74
2021/04/01 06:54:21;;;;;;;;;;;;;;;10.91;60.80;101975.50;5078157;28;879;-74
2021/04/01 06:57:08;;;;;;;;;;;;;;;10.76;61.23;101975.91;5057891;28;1232;-74
2021/04/01 06:59:59;;;;;;;;;;;;;;;10.76;61.60;101973.16;5057829;28;1909;-74
2021/04/01 07:02:33;;;;;;;;;;;;;;;11.19;59.86;101976.09;5058018;28;848;-74
2021/04/01 07:07:59;;;;;;;;;;;;;;;11.71;57.46;101983.69;5057540;28;2000;-74
2021/04/01 07:11:04;;;;;;;;;;;;;;;14.23;50.92;101983.06;5070789;28;1860;-75
2021/04/01 07:13:35;;;;;;;;;;;;;;;15.48;45.83;101980.94;5077712;28;943;-75
2021/04/01 07:16:11;;;;;;;;;;;;;;;14.22;47.66;101992.53;5077703;28;1241;-73
2021/04/01 07:19:47;;;;;;;;;;;;;;;15.59;45.57;101993.22;5077038;28;1893;-72
2021/04/01 07:46:32;;;;;;;;;;;;;;;19.52;35.50;102014.28;5077058;28;1221;-73
2021/04/01 07:49:10;;;;;;;;;;;;;;;19.25;36.17;102022.66;5076747;28;914;-73
2021/04/01 07:59:56;;;;;;;;;;;;;;;18.33;38.04;102034.56;5076765;28;817;-73
2021/04/01 08:04:48;;;;;;;;;;;;;;;15.47;44.52;102048.09;5076980;28;1014;-73
2021/04/01 08:07:15;;;;;;;;;;;;;;;13.76;50.02;102053.50;5075923;28;1173;-73
2021/04/01 08:09:44;;;;;;;;;;;;;;;14.54;48.15;102054.03;5076378;28;2023;-73
2021/04/01 08:12:34;;;;;;;;;;;;;;;14.90;47.79;102063.66;5076309;28;2076;-72
2021/04/01 08:15:11;;;;;;;;;;;;;;;16.10;45.32;102048.50;5059788;28;2049;-72
2021/04/01 08:18:08;;;;;;;;;;;;;;;17.45;41.44;102049.75;5075791;28;1894;-72
2021/04/01 08:20:31;;;;;;;;;;;;;;;17.65;41.11;102055.41;5075561;28;2060;-72
2021/04/01 08:23:22;;;;;;;;;;;;;;;17.63;41.76;102058.56;5076641;28;847;-72
2021/04/01 08:25:53;;;;;;;;;;;;;;;18.32;40.28;102062.88;5076215;28;2109;-72
2021/04/01 08:35:56;;;;;;;;;;;;;;;20.10;36.70;102053.13;5076185;28;861;-72
2021/04/01 08:38:22;;;;;;;;;;;;;;;21.09;35.21;102042.63;5074905;28;2050;-71
2021/04/01 08:40:48;;;;;;;;;;;;;;;21.21;34.66;102042.34;5075184;28;2049;-72
2021/04/01 08:43:57;;;;;;;;;;;;;;;22.09;33.05;102047.34;5076071;28;1823;-72
2021/04/01 08:46:38;;;;;;;;;;;;;;;22.24;31.72;102045.41;5074474;28;1806;-72
2021/04/01 08:49:31;;;;;;;;;;;;;;;22.85;31.96;102054.84;5074009;28;1598;-72
2021/04/01 08:52:14;;;;;;;;;;;;;;;21.59;33.65;102056.28;5075678;28;792;-72
2021/04/01 08:55:04;;;;;;;;;;;;;;;20.47;34.97;102071.25;5074010;28;1864;-72
2021/04/01 08:57:39;;;;;;;;;;;;;;;17.91;40.17;102070.78;5074822;28;2059;-71
2021/04/01 09:00:10;;;;;;;;;;;;;;;16.17;44.29;102089.69;5075490;28;2014;-73
2021/04/01 09:02:38;;;;;;;;;;;;;;;15.01;48.23;102096.25;5081366;28;2036;-82
2021/04/01 09:05:08;;;;;;;;;;;;;;;14.00;50.93;102104.78;5081321;28;1932;-82
2021/04/01 09:07:41;;;;;;;;;;;;;;;13.52;51.95;102109.63;5081239;28;1264;-82
2021/04/01 09:10:20;;;;;;;;;;;;;;;12.79;53.88;102108.50;5082508;28;872;-82
2021/04/01 09:13:05;;;;;;;;;;;;;;;13.92;51.87;102121.16;5084811;28;820;-80
2021/04/01 09:18:24;;;;;;;;;;;;;;;15.85;46.55;102124.91;5086988;28;1894;-80
2021/04/01 09:20:56;;;;;;;;;;;;;;;18.00;40.54;102118.91;5081790;28;1549;-80
2021/04/01 09:23:35;;;;;;;;;;;;;;;18.15;39.92;102128.41;5083031;28;975;-80
2021/04/01 09:26:01;;;;;;;;;;;;;;;16.76;43.05;102132.00;5082188;28;1704;-80
2021/04/01 09:28:35;;;;;;;;;;;;;;;15.32;46.01;102153.38;5085398;28;1751;-79
2021/04/01 09:31:02;;;;;;;;;;;;;;;14.32;48.10;102153.25;5088175;28;999;-80
2021/04/01 09:33:30;;;;;;;;;;;;;;;16.43;44.60;102136.66;5090467;28;817;-82
2021/04/01 09:36:36;;;;;;;;;;;;;;;18.37;38.67;102152.06;5083158;28;1548;-81
2021/04/01 09:39:24;;;;;;;;;;;;;;;17.63;41.01;102149.91;5057689;28;1898;-81
2021/04/01 09:41:57;;;;;;;;;;;;;;;16.11;44.25;102152.41;5084707;28;855;-81
2021/04/01 09:44:22;;;;;;;;;;;;;;;15.23;45.66;102158.22;5082887;28;1367;-81
2021/04/01 09:46:56;;;;;;;;;;;;;;;14.28;48.56;102160.66;5083958;28;1181;-81
2021/04/01 09:49:27;;;;;;;;;;;;;;;13.64;50.81;102158.88;5084115;28;847;-81
2021/04/01 09:51:54;;;;;;;;;;;;;;;14.25;49.46;102158.53;5082044;28;1653;-81
2021/04/01 09:54:19;;;;;;;;;;;;;;;15.86;44.85;102143.25;5082964;28;1716;-80
2021/04/01 09:56:59;;;;;;;;;;;;;;;15.61;45.42;102155.16;5082877;28;1831;-81
2021/04/01 10:02:22;;;;;;;;;;;;;;;19.03;37.65;102171.81;5082220;28;1879;-82
2021/04/01 10:04:53;;;;;;;;;;;;;;;21.72;32.47;102146.72;5082355;28;796;-80
2021/04/01 10:07:19;;;;;;;;;;;;;;;22.26;30.65;102150.69;5081461;28;1241;-80
2021/04/01 10:09:50;;;;;;;;;;;;;;;20.31;34.26;102168.78;5080447;28;1834;-81
2021/04/01 10:12:19;;;;;;;;;;;;;;;19.80;34.97;102162.44;5072904;28;1898;-80
2021/04/01 10:14:50;;;;;;;;;;;;;;;19.28;35.75;102164.72;5084763;28;915;-81
2021/04/01 10:17:18;;;;;;;;;;;;;;;21.31;33.24;102155.16;5085032;28;1169;-81
2021/04/01 10:19:49;;;;;;;;;;;;;;;24.22;27.90;102150.66;5085458;28;1894;-81
2021/04/01 10:22:27;;;;;;;;;;;;;;;23.66;29.46;102153.94;5084009;28;812;-81
2021/04/01 10:25:18;;;;;;;;;;;;;;;23.90;28.57;102160.00;5083782;28;1815;-81
2021/04/01 10:30:15;;;;;;;;;;;;;;;18.63;37.03;102179.38;5085063;28;974;-81
2021/04/01 10:32:53;;;;;;;;;;;;;;;18.38;37.12;102174.06;5082929;28;1221;-80
2021/04/01 10:35:23;;;;;;;;;;;;;;;17.42;39.11;102178.91;5083844;28;895;-80
2021/04/01 10:37:51;;;;;;;;;;;;;;;17.76;38.75;102182.16;5082204;28;1969;-80
2021/04/01 10:40:19;;;;;;;;;;;;;;;18.41;36.91;102178.13;5083125;28;1628;-80
2021/04/01 10:42:49;;;;;;;;;;;;;;;17.05;38.35;102190.25;5083075;28;824;-80
2021/04/01 10:45:22;;;;;;;;;;;;;;;16.86;39.03;102198.50;5082185;28;1907;-80
2021/04/01 10:48:19;;;;;;;;;;;;;;;17.44;37.79;102198.06;5084047;28;1236;-80
2021/04/01 10:50:45;;;;;;;;;;;;;;;17.71;36.50;102201.97;5083899;28;836;-80
2021/04/01 10:53:40;;;;;;;;;;;;;;;20.63;32.16;102197.31;5082729;28;1761;-80
2021/04/01 10:56:08;;;;;;;;;;;;;;;20.26;32.10;102203.56;5082773;28;1848;-80
2021/04/01 10:58:35;;;;;;;;;;;;;;;19.40;33.79;102207.75;5081217;28;1879;-81
2021/04/01 11:01:04;;;;;;;;;;;;;;;18.60;35.21;102199.69;5085123;28;2765;-81
2021/04/01 11:03:36;;;;;;;;;;;;;;;18.64;34.67;102216.56;5083328;28;1281;-81
2021/04/01 11:06:04;;;;;;;;;;;;;;;20.03;32.18;102212.03;5087173;28;2094;-81
2021/04/01 11:08:39;;;;;;;;;;;;;;;21.91;29.13;102213.16;5087005;28;955;-81
2021/04/01 11:11:07;;;;;;;;;;;;;;;20.48;30.48;102224.31;5083529;28;1184;-81
2021/04/01 11:13:34;;;;;;;;;;;;;;;19.22;32.90;102224.97;5086626;28;1017;-82
2021/04/01 11:16:03;;;;;;;;;;;;;;;18.09;35.52;102216.50;5091060;28;2004;-82
2021/04/01 11:18:30;;;;;;;;;;;;;;;18.78;33.88;102226.06;5094157;28;1866;-82
2021/04/01 11:20:56;;;;;;;;;;;;;;;21.74;28.45;102215.41;5093377;28;1229;-81
2021/04/01 11:23:25;;;;;;;;;;;;;;;22.11;28.21;102222.94;5084708;28;991;-81
2021/04/01 11:25:55;;;;;;;;;;;;;;;19.43;32.00;102223.78;5084076;28;1188;-82
2021/04/01 11:28:33;;;;;;;;;;;;;;;19.89;31.57;102219.03;5083681;28;1081;-81
2021/04/01 11:30:59;;;;;;;;;;;;;;;20.84;30.10;102222.03;5088996;28;2086;-81
2021/04/01 11:33:26;;;;;;;;;;;;;;;19.07;32.06;102229.50;5090532;28;2100;-81
2021/04/01 11:36:10;;;;;;;;;;;;;;;16.27;37.20;102236.91;5091356;28;789;-81
2021/04/01 11:38:43;;;;;;;;;;;;;;;14.46;41.65;102253.03;5090471;28;2015;-81
2021/04/01 11:41:12;;;;;;;;;;;;;;;17.28;35.92;102246.31;5091088;28;1835;-80
2021/04/01 11:43:38;;;;;;;;;;;;;;;19.66;31.72;102244.22;5086779;28;1018;-81
2021/04/01 11:46:15;;;;;;;;;;;;;;;22.21;27.47;102240.28;5085313;28;1208;-81
2021/04/01 11:48:42;;;;;;;;;;;;;;;23.11;26.64;102240.81;5086051;28;2179;-81
2021/04/01 11:51:15;;;;;;;;;;;;;;;22.83;25.67;102243.09;5086863;28;852;-78
2021/04/01 11:53:41;;;;;;;;;;;;;;;23.23;26.89;102229.19;5081993;28;951;-79
2021/04/01 11:56:07;;;;;;;;;;;;;;;23.36;25.51;102238.88;5087972;28;2111;-80
2021/04/01 11:58:32;;;;;;;;;;;;;;;24.88;23.35;102229.13;5083771;28;1894;-79
2021/04/01 12:01:17;;;;;;;;;;;;;;;22.44;26.47;102237.25;5086031;28;863;-81
2021/04/01 12:06:29;;;;;;;;;;;;;;;18.15;33.81;102252.22;5085130;28;1997;-80
2021/04/01 12:08:56;;;;;;;;;;;;;;;16.44;38.76;102251.78;5084739;28;1338;-80
2021/04/01 12:11:21;;;;;;;;;;;;;;;16.87;37.36;102248.34;5083519;28;1975;-80
2021/04/01 12:13:47;;;;;;;;;;;;;;;17.08;37.51;102242.56;5082137;28;799;-80
2021/04/01 12:16:21;;;;;;;;;;;;;;;16.26;39.62;102260.34;5081783;28;1338;-80
2021/04/01 12:18:47;;;;;;;;;;;;;;;14.49;43.68;102255.94;5082374;28;2123;-80
2021/04/01 12:21:14;;;;;;;;;;;;;;;13.47;45.92;102268.75;5082890;28;872;-82
2021/04/01 12:23:42;;;;;;;;;;;;;;;12.94;47.49;102272.66;5081643;28;1684;-82
2021/04/01 12:26:07;;;;;;;;;;;;;;;13.04;47.96;102271.53;5082960;28;1204;-82
2021/04/01 12:28:32;;;;;;;;;;;;;;;12.82;48.41;102280.81;5082708;28;939;-82
2021/04/01 12:30:58;;;;;;;;;;;;;;;12.63;48.72;102275.56;5084910;28;994;-82
2021/04/01 12:33:26;;;;;;;;;;;;;;;12.25;49.60;102279.72;5084005;28;2100;-82
2021/04/01 12:35:55;;;;;;;;;;;;;;;11.26;52.20;102283.34;5082588;28;1322;-82
2021/04/01 12:38:36;;;;;;;;;;;;;;;11.14;52.33;102283.06;5082609;28;1961;-82
2021/04/01 12:41:20;;;;;;;;;;;;;;;10.49;54.67;102282.28;5081842;28;1923;-82
2021/04/01 12:43:47;;;;;;;;;;;;;;;10.79;53.84;102287.47;5079491;28;1993;-82
2021/04/01 12:46:13;;;;;;;;;;;;;;;10.88;53.61;102291.13;5084009;28;1291;-82
2021/04/01 12:48:48;;;;;;;;;;;;;;;10.98;53.41;102285.38;5080711;28;1898;-82
2021/04/01 12:51:17;;;;;;;;;;;;;;;10.52;54.51;102297.44;5079488;28;887;-82
2021/04/01 12:53:43;;;;;;;;;;;;;;;9.97;56.07;102282.47;5080231;28;816;-82
2021/04/01 12:56:20;;;;;;;;;;;;;;;9.87;56.42;102299.19;5079064;28;2139;-82
2021/04/01 12:58:58;;;;;;;;;;;;;;;9.93;56.93;102295.25;5079243;28;1965;-82
2021/04/01 13:03:49;;;;;;;;;;;;;;;9.59;57.86;102309.34;5078509;28;2051;-82
2021/04/01 13:06:19;;;;;;;;;;;;;;;9.71;58.20;102295.09;5078005;28;1287;-82
2021/04/01 13:11:12;;;;;;;;;;;;;;;10.02;57.56;102294.50;5079292;28;803;-81
2021/04/01 13:13:40;;;;;;;;;;;;;;;9.87;57.74;102296.44;5078409;28;1858;-81
2021/04/01 13:16:06;;;;;;;;;;;;;;;10.11;57.56;102298.22;5078752;28;1196;-81
2021/04/01 13:18:31;;;;;;;;;;;;;;;10.27;56.68;102295.97;5078754;28;2241;-80
2021/04/01 13:20:58;;;;;;;;;;;;;;;9.94;57.34;102301.56;5080765;28;880;-81
2021/04/01 13:23:31;;;;;;;;;;;;;;;9.76;58.83;102295.81;5079038;28;1002;-82
2021/04/01 13:25:57;;;;;;;;;;;;;;;9.86;58.24;102308.63;5078697;28;1882;-82
2021/04/01 13:28:23;;;;;;;;;;;;;;;9.85;57.96;102306.97;5078620;28;1847;-82
2021/04/01 13:30:56;;;;;;;;;;;;;;;9.90;58.07;102308.81;5078684;28;1831;-82
2021/04/01 13:33:37;;;;;;;;;;;;;;;10.05;58.33;102303.00;5079329;28;2182;-82
2021/04/01 13:36:14;;;;;;;;;;;;;;;10.33;57.27;102308.59;5079727;28;1228;-82
2021/04/01 13:38:42;;;;;;;;;;;;;;;10.14;57.46;102295.66;5078870;28;2197;-82
2021/04/01 13:41:10;;;;;;;;;;;;;;;10.30;56.76;102301.69;5078584;28;915;-82
2021/04/01 13:43:36;;;;;;;;;;;;;;;10.56;57.29;102300.41;5079140;28;872;-82
2021/04/01 13:46:02;;;;;;;;;;;;;;;11.01;55.58;102295.81;5078984;28;1708;-81
2021/04/01 13:48:31;;;;;;;;;;;;;;;11.28;55.09;102296.84;5080127;28;2103;-82
2021/04/01 13:51:11;;;;;;;;;;;;;;;12.01;53.01;102294.75;5080380;28;836;-82
2021/04/01 13:53:50;;;;;;;;;;;;;;;12.12;52.92;102297.25;5084012;28;863;-82
2021/04/01 13:56:25;;;;;;;;;;;;;;;13.40;48.82;102282.31;5079758;28;1204;-82
2021/04/01 14:09:51;;;;;;;;;;;;;;;13.35;49.30;102293.59;5081800;28;749;-82
2021/04/01 14:12:19;;;;;;;;;;;;;;;13.57;48.49;102297.34;5080713;28;1937;-82
2021/04/01 14:14:45;;;;;;;;;;;;;;;12.93;48.66;102288.50;5080966;28;862;-82
2021/04/01 14:17:12;;;;;;;;;;;;;;;12.67;50.56;102295.97;5080219;28;2067;-82
2021/04/01 14:19:40;;;;;;;;;;;;;;;12.82;49.95;102295.50;5081208;28;1894;-82
2021/04/01 14:22:05;;;;;;;;;;;;;;;12.65;50.02;102292.69;5081313;28;2178;-82
2021/04/01 14:24:35;;;;;;;;;;;;;;;12.18;50.95;102295.94;5081941;28;835;-82
2021/04/01 14:29:28;;;;;;;;;;;;;;;12.08;51.84;102290.69;5082148;28;1898;-82
2021/04/01 14:31:54;;;;;;;;;;;;;;;11.82;52.18;102283.88;5082509;28;1882;-82
2021/04/01 14:34:22;;;;;;;;;;;;;;;12.08;50.87;102297.06;5081184;28;1841;-82
2021/04/01 14:36:49;;;;;;;;;;;;;;;11.86;51.99;102284.88;5080692;28;1581;-81
2021/04/01 14:39:14;;;;;;;;;;;;;;;11.62;52.07;102285.22;5081919;28;1894;-82
2021/04/01 14:41:57;;;;;;;;;;;;;;;11.40;53.00;102286.06;5084069;28;1911;-81
2021/04/01 14:44:22;;;;;;;;;;;;;;;11.70;52.51;102280.88;5084060;28;919;-82
2021/04/01 14:46:49;;;;;;;;;;;;;;;13.23;48.84;102274.00;5084105;28;2028;-81
2021/04/01 14:49:14;;;;;;;;;;;;;;;13.52;46.87;102276.09;5084039;28;1896;-81
2021/04/01 14:51:42;;;;;;;;;;;;;;;12.50;48.37;102275.38;5083623;28;987;-82
2021/04/01 14:54:09;;;;;;;;;;;;;;;12.29;49.25;102269.63;5084040;28;844;-82
2021/04/01 14:56:37;;;;;;;;;;;;;;;12.88;47.18;102268.44;5082721;28;1346;-82